Time;durP1;ratioP1;P1;durP2;ratioP2;P2;SDS_P1;SDS_P2;PMS_P1;PMS_P2;Temp;Humidity;BMP_temperature;BMP_pressure;BME280_temperature;BME280_humidity;BME280_pressure;Samples;Min_cycle;Max_cycle;Signal;HPM_P1;HPM_P2
2021/04/25 00:00:27;;;;;;;1.02;0.70;;;6.10;61.20;;;;;;5095492;28;20036;-76
2021/04/25 00:02:53;;;;;;;0.60;0.40;;;6.10;61.20;;;;;;5113511;28;20051;-76
2021/04/25 00:05:20;;;;;;;0.55;0.45;;;6.20;61.20;;;;;;5058670;28;20150;-77
2021/04/25 00:07:46;;;;;;;0.82;0.55;;;6.20;61.20;;;;;;5078204;28;20039;-76
2021/04/25 00:10:16;;;;;;;0.50;0.50;;;6.10;61.30;;;;;;5061507;28;20074;-76
2021/04/25 00:12:43;;;;;;;0.73;0.40;;;6.20;61.20;;;;;;5094831;28;20488;-76
2021/04/25 00:15:11;;;;;;;1.05;0.60;;;6.20;61.30;;;;;;5113421;28;20039;-76
2021/04/25 00:17:38;;;;;;;0.60;0.47;;;6.30;61.40;;;;;;5113211;28;20040;-76
2021/04/25 00:20:06;;;;;;;1.23;0.77;;;6.20;61.30;;;;;;5095452;28;20036;-76
2021/04/25 00:22:32;;;;;;;0.80;0.40;;;6.30;61.50;;;;;;5113440;28;20046;-76
2021/04/25 00:24:59;;;;;;;0.70;0.40;;;6.30;61.50;;;;;;5093640;28;20047;-75
2021/04/25 00:27:26;;;;;;;1.02;0.50;;;6.30;61.50;;;;;;5094719;28;20088;-75
2021/04/25 00:29:56;;;;;;;0.55;0.40;;;6.30;61.60;;;;;;5112803;28;20031;-76
2021/04/25 00:32:22;;;;;;;0.60;0.40;;;6.30;61.60;;;;;;5092743;28;20036;-77
2021/04/25 00:34:48;;;;;;;0.43;0.40;;;6.30;61.70;;;;;;5095053;28;20085;-76
2021/04/25 00:37:14;;;;;;;0.77;0.40;;;6.40;61.80;;;;;;5077820;28;20122;-76
2021/04/25 00:39:41;;;;;;;0.70;0.38;;;6.40;61.80;;;;;;5093470;28;20122;-76
2021/04/25 00:42:07;;;;;;;0.70;0.50;;;6.40;61.80;;;;;;5076279;28;20032;-77
2021/04/25 00:44:34;;;;;;;0.52;0.47;;;6.50;62.00;;;;;;5077649;28;20055;-78
2021/04/25 00:47:00;;;;;;;0.68;0.30;;;6.40;62.00;;;;;;5060915;28;20397;-77
2021/04/25 00:49:28;;;;;;;0.80;0.50;;;6.40;62.00;;;;;;5092969;28;20036;-76
2021/04/25 00:51:54;;;;;;;0.93;0.50;;;6.40;62.10;;;;;;5076398;28;20024;-77
2021/04/25 00:54:20;;;;;;;1.65;0.60;;;6.40;62.20;;;;;;5077508;28;20069;-76
2021/04/25 00:56:47;;;;;;;1.15;0.50;;;6.40;62.20;;;;;;5060557;28;20029;-76
2021/04/25 00:59:15;;;;;;;1.10;0.55;;;6.40;62.30;;;;;;5056670;28;20048;-76
2021/04/25 01:01:41;;;;;;;0.82;0.47;;;6.30;62.40;;;;;;5039846;28;20036;-76
2021/04/25 01:04:08;;;;;;;0.57;0.50;;;6.30;62.50;;;;;;5056541;28;20047;-77
2021/04/25 01:06:34;;;;;;;0.50;0.30;;;6.20;62.70;;;;;;5056542;28;20047;-77
2021/04/25 01:09:03;;;;;;;1.80;0.60;;;6.10;62.80;;;;;;5056279;28;20035;-77
2021/04/25 01:11:30;;;;;;;0.40;0.40;;;6.10;63.00;;;;;;5040142;28;20040;-77
2021/04/25 01:13:56;;;;;;;0.60;0.30;;;6.10;63.20;;;;;;5039720;28;20040;-77
2021/04/25 01:16:22;;;;;;;0.57;0.40;;;6.00;63.30;;;;;;5059040;28;20537;-77
2021/04/25 01:18:51;;;;;;;0.30;0.30;;;6.00;63.40;;;;;;5076497;28;20515;-75
2021/04/25 01:21:17;;;;;;;0.80;0.43;;;6.00;63.50;;;;;;5076963;28;20075;-77
2021/04/25 01:23:43;;;;;;;0.68;0.40;;;5.90;64.10;;;;;;5076189;28;20032;-77
2021/04/25 01:26:10;;;;;;;0.68;0.40;;;5.90;63.60;;;;;;5059382;28;20040;-76
2021/04/25 01:28:36;;;;;;;0.73;0.50;;;5.80;63.60;;;;;;5042791;28;20072;-76
2021/04/25 01:31:03;;;;;;;0.38;0.32;;;5.80;63.70;;;;;;5059507;28;20032;-76
2021/04/25 01:33:33;;;;;;;0.20;0.20;;;5.70;63.80;;;;;;5078826;28;20085;-76
2021/04/25 01:36:00;;;;;;;0.40;0.30;;;5.70;63.90;;;;;;5062670;28;20044;-77
2021/04/25 01:38:26;;;;;;;0.65;0.50;;;5.70;64.00;;;;;;5080011;28;20047;-76
2021/04/25 01:40:52;;;;;;;0.50;0.20;;;5.60;64.00;;;;;;5115891;28;20040;-76
2021/04/25 01:43:19;;;;;;;0.68;0.40;;;5.60;64.10;;;;;;5095695;28;20040;-76
2021/04/25 01:45:45;;;;;;;0.30;0.22;;;5.60;64.20;;;;;;5064103;28;20092;-77
2021/04/25 01:48:11;;;;;;;0.60;0.55;;;5.50;64.30;;;;;;5080100;28;20559;-77
2021/04/25 01:50:37;;;;;;;0.43;0.30;;;5.50;64.30;;;;;;5080545;28;20105;-77
2021/04/25 01:53:05;;;;;;;0.50;0.40;;;5.50;64.30;;;;;;5097429;28;20046;-77
2021/04/25 01:55:34;;;;;;;0.22;0.20;;;5.40;64.30;;;;;;5061781;28;20032;-77
2021/04/25 01:58:01;;;;;;;0.80;0.43;;;5.30;64.40;;;;;;5064330;28;20499;-77
2021/04/25 02:00:31;;;;;;;0.43;0.20;;;5.40;64.50;;;;;;5080300;28;20508;-79
2021/04/25 02:03:02;;;;;;;0.85;0.47;;;5.30;64.40;;;;;;5080354;28;20051;-77
2021/04/25 02:05:29;;;;;;;1.58;0.65;;;5.30;64.50;;;;;;5063640;28;20038;-77
2021/04/25 02:07:56;;;;;;;0.32;0.32;;;5.30;64.50;;;;;;5063446;28;20043;-77
2021/04/25 02:10:23;;;;;;;0.65;0.50;;;5.30;64.40;;;;;;5080177;28;20028;-76
2021/04/25 02:12:50;;;;;;;0.93;0.45;;;5.30;64.30;;;;;;5063688;28;20044;-76
2021/04/25 02:15:16;;;;;;;1.05;0.38;;;5.30;64.30;;;;;;5096896;28;20084;-76
2021/04/25 02:17:44;;;;;;;0.50;0.30;;;5.20;64.20;;;;;;5080117;28;20500;-76
2021/04/25 02:20:13;;;;;;;0.38;0.38;;;5.30;64.30;;;;;;5062333;28;20048;-76
2021/04/25 02:22:40;;;;;;;0.50;0.40;;;5.30;64.30;;;;;;5114975;28;20085;-76
2021/04/25 02:25:08;;;;;;;2.00;0.50;;;5.30;64.30;;;;;;5063330;28;20092;-76
2021/04/25 02:27:35;;;;;;;1.10;0.50;;;5.30;64.30;;;;;;5095807;28;20035;-76
2021/04/25 02:30:04;;;;;;;0.50;0.47;;;5.30;64.40;;;;;;5079728;28;20499;-76
2021/04/25 02:32:30;;;;;;;0.93;0.60;;;5.20;64.40;;;;;;5115284;28;20070;-77
2021/04/25 02:34:56;;;;;;;0.32;0.30;;;5.20;64.40;;;;;;5096861;28;20077;-76
2021/04/25 02:37:22;;;;;;;0.63;0.20;;;5.20;65.10;;;;;;5114544;28;20043;-76
2021/04/25 02:39:49;;;;;;;0.30;0.20;;;5.20;64.40;;;;;;5079607;28;20137;-77
2021/04/25 02:42:15;;;;;;;0.35;0.20;;;5.10;64.40;;;;;;5079385;28;20062;-77
2021/04/25 02:44:41;;;;;;;0.63;0.40;;;5.20;64.60;;;;;;5062694;28;20044;-76
2021/04/25 02:47:07;;;;;;;0.70;0.43;;;5.10;64.50;;;;;;5096323;28;20067;-76
2021/04/25 02:49:34;;;;;;;0.43;0.30;;;5.10;64.60;;;;;;5096887;28;20044;-76
2021/04/25 02:52:00;;;;;;;0.50;0.22;;;5.10;64.60;;;;;;5115071;28;20032;-75
2021/04/25 02:54:26;;;;;;;0.35;0.32;;;5.00;64.50;;;;;;5096152;28;20542;-77
2021/04/25 02:56:52;;;;;;;0.50;0.30;;;5.10;64.60;;;;;;5096072;28;20504;-76
2021/04/25 02:59:18;;;;;;;0.88;0.40;;;5.00;64.60;;;;;;5096949;28;20039;-76
2021/04/25 03:01:45;;;;;;;1.15;0.43;;;5.00;64.60;;;;;;5062556;28;20541;-76
2021/04/25 03:04:11;;;;;;;0.40;0.30;;;5.00;64.70;;;;;;5114309;28;20096;-76
2021/04/25 03:06:37;;;;;;;0.90;0.50;;;5.00;64.70;;;;;;5079477;28;20137;-76
2021/04/25 03:09:04;;;;;;;0.50;0.30;;;5.00;64.60;;;;;;5062537;28;20050;-76
2021/04/25 03:11:30;;;;;;;0.63;0.43;;;5.00;64.60;;;;;;5095293;28;20118;-76
2021/04/25 03:13:56;;;;;;;0.20;0.20;;;5.00;64.60;;;;;;5096305;28;20077;-76
2021/04/25 03:16:22;;;;;;;0.80;0.30;;;5.00;64.50;;;;;;5078737;28;20040;-76
2021/04/25 03:18:52;;;;;;;0.43;0.40;;;5.00;64.40;;;;;;5095015;28;20050;-76
2021/04/25 03:21:18;;;;;;;0.35;0.20;;;5.00;64.40;;;;;;5095872;28;20484;-77
2021/04/25 03:23:44;;;;;;;0.30;0.20;;;5.10;64.40;;;;;;5062361;28;20042;-77
2021/04/25 03:26:11;;;;;;;0.82;0.40;;;5.10;64.40;;;;;;5094036;28;20126;-77
2021/04/25 03:28:37;;;;;;;0.85;0.57;;;5.00;64.30;;;;;;5062469;28;20396;-76
2021/04/25 03:31:03;;;;;;;0.60;0.30;;;5.10;64.30;;;;;;5061888;28;20031;-77
2021/04/25 03:33:30;;;;;;;0.80;0.40;;;5.10;64.30;;;;;;5077808;28;20093;-75
2021/04/25 03:35:56;;;;;;;0.65;0.30;;;5.20;64.30;;;;;;5079066;28;20047;-76
2021/04/25 03:38:25;;;;;;;1.15;0.50;;;5.20;64.20;;;;;;5077939;28;20051;-75
2021/04/25 03:40:52;;;;;;;0.82;0.40;;;5.20;64.20;;;;;;5078450;28;20076;-76
2021/04/25 03:43:19;;;;;;;0.30;0.30;;;5.20;64.10;;;;;;5078768;28;20081;-76
2021/04/25 03:45:46;;;;;;;0.30;0.20;;;5.20;64.10;;;;;;5096081;28;20424;-77
2021/04/25 03:48:12;;;;;;;0.32;0.20;;;5.30;64.10;;;;;;5078365;28;20040;-77
2021/04/25 03:50:41;;;;;;;0.30;0.28;;;5.30;64.10;;;;;;5061088;28;20044;-77
2021/04/25 03:53:07;;;;;;;0.50;0.40;;;5.30;64.10;;;;;;5062256;28;20043;-77
2021/04/25 03:55:37;;;;;;;1.48;0.50;;;5.30;64.00;;;;;;5078565;28;20032;-76
2021/04/25 03:58:04;;;;;;;1.08;0.40;;;5.30;64.00;;;;;;5061893;28;20043;-77
2021/04/25 04:00:31;;;;;;;0.22;0.22;;;5.40;63.90;;;;;;5095485;28;20397;-77
2021/04/25 04:02:58;;;;;;;0.57;0.40;;;5.40;63.90;;;;;;5062018;28;20088;-75
2021/04/25 04:05:27;;;;;;;0.25;0.22;;;5.40;63.90;;;;;;5095322;28;20065;-76
2021/04/25 04:07:53;;;;;;;0.57;0.40;;;5.40;63.90;;;;;;5095188;28;20515;-77
2021/04/25 04:10:20;;;;;;;0.40;0.30;;;5.40;63.90;;;;;;5061598;28;20130;-77
2021/04/25 04:12:46;;;;;;;0.85;0.30;;;5.50;63.90;;;;;;5061638;28;20063;-77
2021/04/25 04:15:13;;;;;;;0.20;0.20;;;5.40;63.70;;;;;;5061002;28;20070;-76
2021/04/25 04:17:39;;;;;;;0.35;0.30;;;5.50;63.80;;;;;;5062241;28;20108;-76
2021/04/25 04:20:06;;;;;;;0.47;0.35;;;5.50;63.80;;;;;;5079196;28;20032;-76
2021/04/25 04:22:33;;;;;;;0.40;0.20;;;5.60;63.80;;;;;;5061610;28;20070;-76
2021/04/25 04:24:59;;;;;;;0.88;0.40;;;5.60;63.80;;;;;;5061587;28;20108;-76
2021/04/25 04:27:26;;;;;;;2.20;0.35;;;5.50;63.70;;;;;;5061484;28;20092;-77
2021/04/25 04:29:52;;;;;;;0.95;0.40;;;5.60;63.80;;;;;;5095451;28;20032;-76
2021/04/25 04:32:20;;;;;;;0.30;0.30;;;5.60;63.80;;;;;;5076062;28;20453;-75
2021/04/25 04:34:46;;;;;;;0.30;0.20;;;5.60;63.80;;;;;;5077460;28;20039;-76
2021/04/25 04:37:38;;;;;;;0.30;0.30;;;5.60;63.70;;;;;;5113448;28;20047;-77
2021/04/25 04:40:05;;;;;;;0.30;0.10;;;5.70;63.80;;;;;;5065575;28;20040;-77
2021/04/25 04:43:00;;;;;;;0.22;0.22;;;5.70;63.80;;;;;;5083118;28;20040;-76
2021/04/25 04:45:30;;;;;;;0.25;0.25;;;5.70;63.80;;;;;;5096648;28;20056;-76
2021/04/25 04:47:56;;;;;;;0.70;0.32;;;5.80;63.70;;;;;;5111630;28;20039;-75
2021/04/25 04:50:22;;;;;;;0.30;0.30;;;5.80;63.70;;;;;;5112089;28;20046;-75
2021/04/25 04:52:48;;;;;;;0.30;0.30;;;5.70;63.60;;;;;;5075460;28;20090;-75
2021/04/25 04:55:17;;;;;;;1.10;0.43;;;5.70;63.50;;;;;;5094354;28;20048;-76
2021/04/25 04:57:43;;;;;;;0.40;0.30;;;5.70;63.50;;;;;;5112946;28;20047;-75
2021/04/25 05:00:11;;;;;;;0.50;0.32;;;5.70;63.40;;;;;;5093461;28;20058;-76
2021/04/25 05:02:37;;;;;;;0.28;0.25;;;5.80;63.40;;;;;;5077405;28;20393;-75
2021/04/25 05:05:07;;;;;;;0.30;0.30;;;5.70;63.40;;;;;;5112391;28;20043;-77
2021/04/25 05:07:34;;;;;;;0.35;0.22;;;5.80;63.40;;;;;;5094195;28;20044;-77
2021/04/25 05:10:00;;;;;;;0.43;0.30;;;5.80;63.40;;;;;;5094243;28;20034;-77
2021/04/25 05:12:26;;;;;;;0.20;0.20;;;5.80;63.40;;;;;;5076115;28;20079;-77
2021/04/25 05:14:55;;;;;;;0.38;0.20;;;5.80;63.30;;;;;;5094318;28;20027;-76
2021/04/25 05:17:24;;;;;;;0.80;0.30;;;5.80;63.30;;;;;;5076326;28;20047;-76
2021/04/25 05:19:53;;;;;;;0.40;0.30;;;5.80;63.20;;;;;;5048344;28;20506;-75
2021/04/25 05:26:03;;;;;;;0.55;0.32;;;5.90;63.20;;;;;;4893783;29;20085;-76
2021/04/25 05:28:30;;;;;;;0.35;0.30;;;6.00;63.10;;;;;;4881676;29;20509;-76
2021/04/25 05:30:57;;;;;;;0.95;0.20;;;6.00;63.00;;;;;;4897353;29;20040;-76
2021/04/25 05:33:23;;;;;;;0.20;0.20;;;6.10;63.00;;;;;;4882136;29;20513;-77
2021/04/25 05:35:49;;;;;;;0.47;0.30;;;5.90;62.90;;;;;;4897804;29;20110;-77
2021/04/25 05:38:16;;;;;;;0.88;0.30;;;6.00;62.90;;;;;;4913795;29;20044;-75
2021/04/25 05:40:42;;;;;;;1.05;0.30;;;6.10;62.90;;;;;;4897459;29;20184;-76
2021/04/25 05:43:08;;;;;;;0.28;0.20;;;6.00;62.80;;;;;;4897573;29;20569;-76
2021/04/25 05:45:34;;;;;;;0.40;0.30;;;6.10;63.50;;;;;;4913722;29;20578;-77
2021/04/25 05:48:01;;;;;;;0.40;0.20;;;6.20;62.90;;;;;;4879396;29;20052;-77
2021/04/25 05:50:29;;;;;;;0.82;0.30;;;6.20;62.80;;;;;;4889518;29;20483;-75
2021/04/25 05:52:56;;;;;;;0.35;0.20;;;6.20;62.80;;;;;;4913375;29;20514;-75
2021/04/25 05:55:24;;;;;;;0.30;0.30;;;6.20;62.70;;;;;;4921682;29;20036;-76
2021/04/25 05:57:53;;;;;;;0.30;0.20;;;6.20;62.60;;;;;;4911459;29;20047;-76
2021/04/25 06:00:23;;;;;;;0.50;0.40;;;6.30;62.70;;;;;;4916941;29;20051;-76
2021/04/25 06:02:50;;;;;;;0.82;0.30;;;6.30;62.60;;;;;;4989115;28;20118;-75
2021/04/25 06:05:19;;;;;;;0.30;0.30;;;6.30;62.50;;;;;;5055759;28;20080;-76
2021/04/25 06:07:45;;;;;;;0.30;0.30;;;6.30;62.50;;;;;;5023092;28;20159;-76
2021/04/25 06:10:12;;;;;;;0.57;0.30;;;6.40;62.50;;;;;;5039011;28;20036;-76
2021/04/25 06:12:39;;;;;;;0.57;0.32;;;6.40;62.50;;;;;;5038899;28;20032;-77
2021/04/25 06:15:07;;;;;;;0.30;0.30;;;6.40;62.50;;;;;;5022452;28;20581;-76
2021/04/25 06:17:36;;;;;;;1.50;0.50;;;6.50;62.40;;;;;;5022527;28;20419;-76
2021/04/25 06:20:04;;;;;;;0.80;0.20;;;6.50;62.40;;;;;;5039175;28;20048;-76
2021/04/25 06:22:31;;;;;;;0.30;0.30;;;6.50;62.30;;;;;;5034617;28;20049;-77
2021/04/25 06:24:58;;;;;;;0.95;0.47;;;6.50;62.20;;;;;;5018643;28;20526;-76
2021/04/25 06:27:25;;;;;;;1.30;0.38;;;6.60;62.40;;;;;;5018612;28;20069;-77
2021/04/25 06:29:53;;;;;;;0.38;0.30;;;6.50;62.20;;;;;;5018562;28;20045;-77
2021/04/25 06:32:20;;;;;;;1.05;0.40;;;6.60;62.20;;;;;;5018781;28;20043;-77
2021/04/25 06:34:47;;;;;;;0.82;0.32;;;6.70;62.10;;;;;;5034145;28;20139;-76
2021/04/25 06:37:13;;;;;;;0.98;0.40;;;6.70;62.00;;;;;;5022665;28;20049;-78
2021/04/25 06:39:40;;;;;;;0.20;0.20;;;6.80;62.00;;;;;;5071925;28;20067;-78
2021/04/25 06:42:06;;;;;;;0.20;0.20;;;6.80;61.90;;;;;;5071982;28;20052;-77
2021/04/25 06:44:32;;;;;;;0.75;0.38;;;6.80;61.90;;;;;;5038514;28;20398;-76
2021/04/25 06:46:59;;;;;;;0.93;0.43;;;6.80;61.90;;;;;;5038475;28;20044;-77
2021/04/25 06:49:28;;;;;;;0.45;0.30;;;6.90;61.90;;;;;;5038569;28;20063;-77
2021/04/25 06:51:56;;;;;;;0.40;0.28;;;6.90;61.90;;;;;;5022519;28;20051;-76
2021/04/25 06:54:25;;;;;;;0.47;0.32;;;6.90;61.80;;;;;;5060463;28;20152;-77
2021/04/25 06:56:51;;;;;;;0.38;0.30;;;6.90;61.70;;;;;;5079671;28;20071;-76
2021/04/25 06:59:17;;;;;;;1.13;0.25;;;6.90;61.70;;;;;;5079545;28;20047;-77
2021/04/25 07:01:47;;;;;;;0.93;0.50;;;7.00;61.80;;;;;;5059318;28;20511;-75
2021/04/25 07:04:15;;;;;;;0.68;0.32;;;7.00;61.60;;;;;;5080051;28;20040;-74
2021/04/25 07:06:41;;;;;;;1.35;0.50;;;7.20;61.60;;;;;;5079185;28;20044;-76
2021/04/25 07:09:08;;;;;;;0.30;0.30;;;7.10;61.40;;;;;;5096182;28;20118;-78
2021/04/25 07:11:34;;;;;;;1.02;0.30;;;7.20;61.40;;;;;;5096413;28;20038;-76
2021/04/25 07:14:00;;;;;;;0.98;0.30;;;7.10;61.30;;;;;;5095569;28;20040;-77
2021/04/25 07:16:27;;;;;;;0.70;0.40;;;7.20;61.40;;;;;;5076427;28;20078;-76
2021/04/25 07:18:55;;;;;;;0.63;0.20;;;7.40;61.50;;;;;;5092439;28;20040;-76
2021/04/25 07:21:21;;;;;;;0.50;0.25;;;7.40;61.30;;;;;;5075903;28;20400;-77
2021/04/25 07:23:48;;;;;;;1.00;0.30;;;7.40;61.20;;;;;;5074975;28;20116;-76
2021/04/25 07:26:14;;;;;;;0.70;0.30;;;7.40;61.20;;;;;;5095853;28;20048;-76
2021/04/25 07:28:40;;;;;;;1.02;0.30;;;7.40;61.10;;;;;;5096095;28;20523;-76
2021/04/25 07:31:07;;;;;;;1.38;0.20;;;7.60;61.20;;;;;;5113977;28;20370;-76
2021/04/25 07:33:34;;;;;;;1.58;0.40;;;7.60;61.10;;;;;;5113809;28;20035;-76
2021/04/25 07:36:02;;;;;;;0.45;0.30;;;7.60;60.90;;;;;;5095706;28;20044;-75
2021/04/25 07:38:28;;;;;;;1.45;0.30;;;7.60;60.90;;;;;;5096377;28;20465;-74
2021/04/25 07:40:54;;;;;;;0.52;0.30;;;7.70;60.90;;;;;;5113676;28;20048;-76
2021/04/25 07:43:20;;;;;;;1.02;0.38;;;7.80;60.80;;;;;;5113776;28;20043;-76
2021/04/25 07:45:46;;;;;;;0.20;0.20;;;7.80;60.70;;;;;;5096026;28;20133;-76
2021/04/25 07:48:13;;;;;;;0.80;0.28;;;7.80;60.60;;;;;;5113516;28;20405;-76
2021/04/25 07:50:39;;;;;;;0.40;0.20;;;7.80;60.70;;;;;;5114085;28;20057;-75
2021/04/25 07:53:05;;;;;;;0.45;0.30;;;7.90;60.80;;;;;;5113743;28;20542;-78
2021/04/25 07:55:32;;;;;;;0.20;0.20;;;7.90;60.70;;;;;;5078624;28;20028;-77
2021/04/25 07:57:58;;;;;;;0.35;0.30;;;8.00;60.70;;;;;;5095400;28;20075;-76
2021/04/25 08:00:25;;;;;;;0.68;0.25;;;8.00;60.60;;;;;;5096282;28;20085;-76
2021/04/25 08:02:51;;;;;;;0.90;0.30;;;8.10;60.60;;;;;;5078610;28;20485;-77
2021/04/25 08:05:17;;;;;;;0.30;0.30;;;8.00;60.50;;;;;;5095976;28;20122;-74
2021/04/25 08:07:45;;;;;;;0.60;0.30;;;8.10;60.50;;;;;;5113398;28;20047;-73
2021/04/25 08:10:12;;;;;;;0.30;0.20;;;8.20;60.40;;;;;;5095538;28;20520;-75
2021/04/25 08:12:38;;;;;;;0.25;0.20;;;8.30;60.40;;;;;;5113667;28;20036;-73
2021/04/25 08:15:05;;;;;;;0.52;0.28;;;8.30;60.30;;;;;;5113281;28;20054;-74
2021/04/25 08:17:31;;;;;;;0.32;0.20;;;8.30;60.20;;;;;;5094776;28;20481;-75
2021/04/25 08:19:57;;;;;;;0.98;0.20;;;8.40;60.30;;;;;;5113167;28;20457;-76
2021/04/25 08:22:23;;;;;;;0.75;0.30;;;8.40;60.20;;;;;;5077915;28;20040;-78
2021/04/25 08:24:49;;;;;;;1.35;0.32;;;8.40;60.20;;;;;;5073762;28;20051;-79
2021/04/25 08:27:16;;;;;;;1.35;0.30;;;8.40;60.40;;;;;;5094668;28;20055;-76
2021/04/25 08:29:42;;;;;;;1.15;0.28;;;8.60;60.50;;;;;;5077877;28;20118;-77
2021/04/25 08:32:09;;;;;;;1.15;0.40;;;8.60;60.30;;;;;;5113094;28;20108;-76
2021/04/25 08:34:35;;;;;;;0.75;0.30;;;8.70;60.20;;;;;;5113032;28;20039;-76
2021/04/25 08:37:01;;;;;;;0.80;0.25;;;8.70;60.10;;;;;;5077750;28;20062;-76
2021/04/25 08:39:27;;;;;;;0.63;0.28;;;8.80;60.00;;;;;;5094440;28;20507;-74
2021/04/25 08:41:55;;;;;;;0.20;0.20;;;8.80;60.00;;;;;;5112864;28;20038;-75
2021/04/25 08:44:23;;;;;;;1.13;0.38;;;8.90;59.80;;;;;;5112903;28;20488;-74
2021/04/25 08:46:51;;;;;;;0.63;0.30;;;9.00;59.60;;;;;;5094374;28;20512;-76
2021/04/25 08:49:19;;;;;;;1.05;0.25;;;9.00;59.70;;;;;;5094623;28;20046;-75
2021/04/25 08:51:45;;;;;;;2.05;0.47;;;9.10;59.70;;;;;;5112906;28;20044;-74
2021/04/25 08:54:13;;;;;;;0.68;0.30;;;9.20;59.60;;;;;;5094857;28;20040;-75
2021/04/25 08:56:39;;;;;;;0.43;0.30;;;9.20;59.30;;;;;;5110659;28;20058;-75
2021/04/25 08:59:06;;;;;;;0.20;0.20;;;9.30;59.80;;;;;;5075793;28;20058;-76
2021/04/25 09:01:32;;;;;;;0.98;0.20;;;9.30;59.20;;;;;;5094518;28;20035;-76
2021/04/25 09:03:58;;;;;;;0.20;0.20;;;9.40;59.20;;;;;;5077922;28;20043;-77
2021/04/25 09:06:24;;;;;;;0.20;0.20;;;9.50;59.10;;;;;;5094329;28;20545;-77
2021/04/25 09:08:56;;;;;;;0.75;0.35;;;9.60;59.20;;;;;;5094308;28;20039;-76
2021/04/25 09:11:36;;;;;;;0.30;0.30;;;9.70;59.00;;;;;;5094829;28;20032;-74
2021/04/25 09:14:24;;;;;;;0.30;0.22;;;9.80;58.80;;;;;;5079617;28;20377;-77
2021/04/25 09:16:59;;;;;;;0.30;0.30;;;9.90;58.60;;;;;;5088968;28;20092;-75
2021/04/25 09:19:40;;;;;;;0.55;0.30;;;9.90;58.60;;;;;;5094268;28;20142;-74
2021/04/25 09:22:06;;;;;;;0.55;0.30;;;10.00;58.70;;;;;;5112274;28;20424;-73
2021/04/25 09:24:33;;;;;;;0.20;0.20;;;10.10;58.60;;;;;;5112255;28;20044;-74
2021/04/25 09:27:00;;;;;;;1.08;0.22;;;10.30;58.50;;;;;;5112070;28;20035;-74
2021/04/25 09:29:46;;;;;;;0.20;0.20;;;10.20;58.40;;;;;;5112348;28;20039;-75
2021/04/25 09:32:21;;;;;;;0.38;0.20;;;10.20;58.30;;;;;;5097125;28;20038;-75
2021/04/25 09:34:47;;;;;;;0.50;0.22;;;10.30;58.40;;;;;;5112645;28;20036;-77
2021/04/25 09:37:19;;;;;;;0.35;0.20;;;10.30;58.30;;;;;;5061891;28;20044;-78
2021/04/25 09:40:05;;;;;;;0.20;0.20;;;10.40;58.30;;;;;;5081292;28;20071;-76
2021/04/25 09:42:31;;;;;;;0.20;0.20;;;10.30;58.20;;;;;;5098917;28;20082;-75
2021/04/25 09:44:58;;;;;;;1.35;0.40;;;10.50;58.40;;;;;;5097318;28;20040;-77
2021/04/25 09:47:35;;;;;;;1.25;0.32;;;10.50;58.30;;;;;;5082855;28;20050;-79
2021/04/25 09:50:02;;;;;;;0.30;0.30;;;10.40;58.30;;;;;;5072534;28;20107;-76
2021/04/25 09:52:38;;;;;;;1.17;0.40;;;10.50;58.50;;;;;;5115624;28;20063;-76
2021/04/25 09:55:18;;;;;;;0.28;0.25;;;10.50;58.50;;;;;;5097265;28;20036;-77
2021/04/25 09:57:47;;;;;;;0.28;0.20;;;10.50;58.30;;;;;;5118397;28;20051;-75
2021/04/25 10:00:14;;;;;;;0.52;0.20;;;10.60;58.40;;;;;;5081323;28;20059;-76
2021/04/25 10:03:00;;;;;;;0.50;0.20;;;10.60;58.20;;;;;;5096662;28;20040;-76
2021/04/25 10:05:29;;;;;;;0.30;0.20;;;10.70;58.20;;;;;;5098687;28;20044;-76
2021/04/25 10:07:56;;;;;;;1.08;0.30;;;10.80;58.20;;;;;;5118543;28;20047;-77
2021/04/25 10:10:22;;;;;;;0.32;0.30;;;10.80;58.10;;;;;;5064483;28;20032;-76
2021/04/25 10:12:56;;;;;;;0.63;0.40;;;10.90;57.90;;;;;;5061806;28;20058;-79
2021/04/25 10:15:29;;;;;;;1.00;0.57;;;11.10;57.70;;;;;;5096401;28;20029;-77
2021/04/25 10:17:55;;;;;;;0.20;0.20;;;11.20;57.40;;;;;;5060699;28;20079;-77
2021/04/25 10:20:23;;;;;;;0.35;0.30;;;11.20;57.50;;;;;;5061625;28;20044;-78
2021/04/25 10:22:51;;;;;;;0.63;0.38;;;11.20;57.30;;;;;;5061480;28;20047;-76
2021/04/25 10:25:31;;;;;;;0.75;0.30;;;11.30;57.20;;;;;;5063226;28;20044;-76
2021/04/25 10:28:02;;;;;;;0.73;0.22;;;11.30;57.30;;;;;;5061006;28;20064;-75
2021/04/25 10:30:33;;;;;;;0.60;0.40;;;11.30;57.50;;;;;;5062361;28;20127;-77
2021/04/25 10:32:59;;;;;;;0.20;0.20;;;11.20;57.60;;;;;;5062227;28;20123;-77
2021/04/25 10:35:32;;;;;;;0.77;0.28;;;11.20;57.70;;;;;;5061874;28;20032;-77
2021/04/25 10:37:59;;;;;;;0.43;0.38;;;11.20;57.70;;;;;;5062886;28;20048;-77
2021/04/25 10:40:31;;;;;;;0.40;0.22;;;11.40;57.50;;;;;;5061738;28;20173;-74
2021/04/25 10:43:10;;;;;;;0.20;0.20;;;11.40;57.20;;;;;;5077493;28;20044;-77
2021/04/25 10:45:55;;;;;;;0.20;0.20;;;11.40;57.40;;;;;;5112663;28;20047;-74
2021/04/25 10:48:24;;;;;;;0.22;0.22;;;11.50;57.40;;;;;;5114140;28;20044;-75
2021/04/25 10:50:55;;;;;;;0.47;0.28;;;11.70;57.20;;;;;;5114698;28;20065;-76
2021/04/25 10:53:25;;;;;;;0.40;0.30;;;11.90;56.80;;;;;;5077810;28;20058;-76
2021/04/25 10:56:03;;;;;;;0.75;0.30;;;12.10;56.50;;;;;;5094121;28;20434;-76
2021/04/25 10:58:29;;;;;;;0.17;0.17;;;12.10;56.50;;;;;;5114314;28;20044;-76
2021/04/25 11:00:55;;;;;;;0.75;0.30;;;12.00;56.40;;;;;;5061113;28;20071;-75
2021/04/25 11:03:40;;;;;;;0.60;0.43;;;11.90;56.60;;;;;;5079181;28;20035;-76
2021/04/25 11:06:24;;;;;;;0.52;0.30;;;11.80;56.80;;;;;;5095949;28;20073;-76
2021/04/25 11:08:51;;;;;;;1.27;0.40;;;11.80;57.10;;;;;;5095716;28;20050;-76
2021/04/25 11:11:37;;;;;;;0.52;0.30;;;12.20;57.00;;;;;;5114403;28;20073;-75
2021/04/25 11:14:04;;;;;;;0.88;0.28;;;12.50;56.30;;;;;;5095110;28;20118;-75
2021/04/25 11:16:32;;;;;;;0.57;0.30;;;12.50;56.00;;;;;;5078130;28;20085;-75
2021/04/25 11:19:02;;;;;;;0.88;0.20;;;12.50;55.90;;;;;;5094447;28;20044;-75
2021/04/25 11:21:50;;;;;;;0.50;0.30;;;12.40;56.00;;;;;;5094476;28;20040;-73
2021/04/25 11:24:32;;;;;;;3.53;0.50;;;12.40;56.20;;;;;;5099223;28;20477;-73
2021/04/25 11:27:01;;;;;;;0.30;0.30;;;12.60;56.10;;;;;;5114085;28;20039;-75
2021/04/25 11:29:48;;;;;;;0.30;0.30;;;12.40;56.70;;;;;;5091853;28;20040;-75
2021/04/25 11:32:27;;;;;;;0.45;0.28;;;12.50;56.30;;;;;;5081772;28;20111;-75
2021/04/25 11:35:07;;;;;;;0.30;0.30;;;12.40;56.30;;;;;;5095676;28;20043;-75
2021/04/25 11:37:34;;;;;;;0.20;0.20;;;12.50;56.40;;;;;;5080098;28;20044;-75
2021/04/25 11:40:03;;;;;;;0.40;0.32;;;12.40;56.30;;;;;;5077468;28;20044;-75
2021/04/25 11:42:36;;;;;;;0.85;0.43;;;12.50;56.10;;;;;;5094023;28;20114;-75
2021/04/25 11:45:07;;;;;;;0.30;0.30;;;12.40;56.00;;;;;;5077868;28;20044;-76
2021/04/25 11:47:34;;;;;;;0.47;0.30;;;12.40;56.20;;;;;;5094365;28;20071;-76
2021/04/25 11:50:04;;;;;;;0.30;0.20;;;12.30;56.30;;;;;;5111842;28;20043;-75
2021/04/25 11:52:35;;;;;;;0.52;0.30;;;12.30;56.50;;;;;;5112502;28;20031;-75
2021/04/25 11:55:07;;;;;;;0.38;0.30;;;12.50;56.40;;;;;;5111889;28;20035;-75
2021/04/25 11:57:36;;;;;;;0.30;0.30;;;12.70;55.90;;;;;;5113435;28;20374;-76
2021/04/25 12:00:12;;;;;;;0.47;0.35;;;12.90;55.70;;;;;;5111580;28;20485;-75
2021/04/25 12:02:54;;;;;;;2.58;0.55;;;13.10;55.20;;;;;;5113408;28;20092;-74
2021/04/25 12:05:23;;;;;;;0.52;0.40;;;13.10;55.00;;;;;;5091907;28;20060;-76
2021/04/25 12:07:55;;;;;;;1.45;0.40;;;13.10;55.00;;;;;;5113643;28;20480;-75
2021/04/25 12:10:38;;;;;;;0.40;0.30;;;13.10;54.80;;;;;;5113651;28;20092;-75
2021/04/25 12:13:23;;;;;;;0.30;0.30;;;13.10;54.90;;;;;;5072274;28;20044;-76
2021/04/25 12:15:54;;;;;;;0.40;0.32;;;13.30;54.80;;;;;;5112979;28;20546;-74
2021/04/25 12:18:29;;;;;;;0.43;0.40;;;13.30;54.70;;;;;;5113168;28;20490;-75
2021/04/25 12:20:59;;;;;;;0.75;0.30;;;13.40;55.00;;;;;;5094067;28;20477;-75
2021/04/25 12:23:27;;;;;;;1.23;0.50;;;13.50;54.40;;;;;;5113515;28;20075;-75
2021/04/25 12:25:55;;;;;;;0.90;0.28;;;13.50;54.30;;;;;;5112857;28;20046;-75
2021/04/25 12:28:36;;;;;;;0.60;0.40;;;13.60;54.20;;;;;;5076447;28;20036;-74
2021/04/25 12:31:03;;;;;;;0.90;0.50;;;13.50;54.10;;;;;;5093315;28;20056;-75
2021/04/25 12:33:51;;;;;;;0.20;0.20;;;13.40;54.20;;;;;;5094880;28;20039;-74
2021/04/25 12:36:19;;;;;;;1.33;0.40;;;13.40;54.30;;;;;;5094832;28;20093;-75
2021/04/25 12:38:59;;;;;;;0.95;0.40;;;13.30;54.40;;;;;;5077869;28;20135;-77
2021/04/25 12:41:37;;;;;;;0.70;0.40;;;13.10;54.40;;;;;;5093466;28;20047;-75
2021/04/25 12:44:04;;;;;;;0.30;0.20;;;13.20;54.80;;;;;;5112742;28;20097;-75
2021/04/25 12:46:30;;;;;;;0.65;0.30;;;13.30;54.70;;;;;;5094165;28;20073;-77
2021/04/25 12:48:59;;;;;;;0.35;0.30;;;13.40;54.60;;;;;;5093621;28;20573;-77
2021/04/25 12:51:28;;;;;;;1.65;0.30;;;13.30;54.40;;;;;;5076620;28;20067;-75
2021/04/25 12:54:04;;;;;;;0.45;0.35;;;13.40;54.50;;;;;;5093395;28;20090;-77
2021/04/25 12:56:52;;;;;;;1.27;0.30;;;13.50;54.10;;;;;;5077559;28;20048;-77
2021/04/25 12:59:31;;;;;;;0.82;0.40;;;13.70;53.80;;;;;;5094889;28;20038;-75
2021/04/25 13:02:09;;;;;;;0.52;0.22;;;13.60;53.80;;;;;;5094163;28;20109;-75
2021/04/25 13:05:03;;;;;;;0.77;0.50;;;13.50;53.90;;;;;;5057471;28;20044;-74
2021/04/25 13:07:40;;;;;;;0.63;0.30;;;13.60;53.80;;;;;;5074607;28;20048;-76